Time;durP1;ratioP1;P1;durP2;ratioP2;P2;SDS_P1;SDS_P2;PMS_P1;PMS_P2;Temp;Humidity;BMP_temperature;BMP_pressure;BME280_temperature;BME280_humidity;BME280_pressure;Samples;Min_cycle;Max_cycle;Signal;HPM_P1;HPM_P2
2022/05/28 00:01:05;;;;;;;4.23;2.10;;;;;;;27.20;37.21;99640.01;1655311;85;21066;-56
2022/05/28 00:03:33;;;;;;;5.77;2.87;;;;;;;27.14;37.44;99635.33;1655531;85;21517;-55
2022/05/28 00:06:01;;;;;;;6.13;2.70;;;;;;;27.28;37.42;99637.13;1655362;85;21004;-55
2022/05/28 00:08:30;;;;;;;4.60;2.43;;;;;;;27.20;37.66;99634.66;1655323;85;20996;-62
2022/05/28 00:10:58;;;;;;;4.23;2.60;;;;;;;27.29;37.59;99639.48;1645007;85;21138;-55
2022/05/28 00:13:25;;;;;;;4.73;2.60;;;;;;;27.27;37.73;99636.86;1656057;85;21003;-56
2022/05/28 00:15:52;;;;;;;4.40;2.67;;;;;;;27.36;37.62;99634.47;1654992;85;20992;-56
2022/05/28 00:18:20;;;;;;;4.37;2.37;;;;;;;27.60;37.25;99638.62;1655104;86;22439;-63
2022/05/28 00:20:46;;;;;;;5.03;2.80;;;;;;;27.64;37.33;99632.89;1660993;85;21830;-60
2022/05/28 00:23:14;;;;;;;6.03;2.53;;;;;;;27.47;37.64;99634.98;1689862;84;21221;-57
2022/05/28 00:25:43;;;;;;;5.80;3.00;;;;;;;27.49;37.55;99630.09;1690395;83;21102;-56
2022/05/28 00:28:10;;;;;;;3.90;2.60;;;;;;;27.62;37.56;99631.09;1690231;83;20991;-57
2022/05/28 00:30:38;;;;;;;3.70;2.53;;;;;;;27.65;37.50;99632.59;1689437;84;21011;-56
2022/05/28 00:33:06;;;;;;;5.83;2.60;;;;;;;27.63;37.55;99631.32;1690336;84;21483;-58
2022/05/28 00:35:33;;;;;;;3.47;2.30;;;;;;;27.75;37.50;99619.47;1690607;84;21275;-56
2022/05/28 00:38:02;;;;;;;4.57;2.60;;;;;;;27.73;37.42;99628.36;1690117;83;21109;-57
2022/05/28 00:40:29;;;;;;;4.80;2.93;;;;;;;27.68;37.54;99628.48;1689296;84;20975;-62
2022/05/28 00:43:00;;;;;;;4.70;2.40;;;;;;;27.75;37.49;99629.41;1689777;83;21016;-56
2022/05/28 00:45:28;;;;;;;5.67;3.10;;;;;;;27.92;37.32;99629.44;1689471;83;21513;-59
2022/05/28 00:47:57;;;;;;;6.23;3.07;;;;;;;27.93;37.38;99626.20;1678496;84;21165;-56
2022/05/28 00:50:25;;;;;;;3.67;2.57;;;;;;;27.90;37.43;99623.59;1689331;84;21534;-58
2022/05/28 00:52:53;;;;;;;4.03;2.70;;;;;;;27.78;37.56;99624.21;1655357;85;21060;-55
2022/05/28 00:55:22;;;;;;;5.20;2.40;;;;;;;27.95;37.38;99619.41;1655587;85;21095;-56
2022/05/28 00:57:50;;;;;;;5.57;2.63;;;;;;;28.01;37.32;99613.36;1656126;85;21071;-56
2022/05/28 01:00:20;;;;;;;4.80;2.70;;;;;;;27.83;37.53;99607.20;1654517;85;21263;-62
2022/05/28 01:03:08;;;;;;;4.25;2.70;;;;;;;27.89;37.44;99612.09;1655634;85;21969;-55
2022/05/28 01:05:54;;;;;;;4.70;3.00;;;;;;;27.92;37.36;99607.19;1655931;86;21004;-60
2022/05/28 01:08:43;;;;;;;4.00;2.43;;;;;;;28.13;37.11;99603.58;1656251;86;21000;-55
2022/05/28 01:11:22;;;;;;;3.67;2.60;;;;;;;28.00;37.15;99594.38;1646550;86;21463;-58
2022/05/28 01:14:09;;;;;;;4.70;2.63;;;;;;;27.79;37.48;99588.28;1655887;85;21531;-57
2022/05/28 01:16:43;;;;;;;4.03;2.77;;;;;;;27.67;37.63;99596.13;1632977;86;21020;-56
2022/05/28 01:19:33;;;;;;;5.23;2.93;;;;;;;27.25;38.21;99594.92;1655669;85;21660;-55
2022/05/28 01:22:33;;;;;;;3.87;2.15;;;;;;;27.27;38.29;99594.84;1655722;85;21513;-63
2022/05/28 01:25:21;;;;;;;3.80;2.70;;;;;;;26.94;38.69;99603.75;1655871;85;20965;-55
2022/05/28 01:27:57;;;;;;;5.13;2.50;;;;;;;26.81;38.94;99585.34;1655085;85;21816;-59
2022/05/28 01:30:23;;;;;;;3.90;2.53;;;;;;;26.82;39.16;99592.29;1656514;86;20979;-54
2022/05/28 01:32:52;;;;;;;4.50;2.33;;;;;;;26.92;39.04;99587.20;1656395;86;21106;-55
2022/05/28 01:35:20;;;;;;;3.47;2.17;;;;;;;26.79;39.26;99587.55;1641085;86;21844;-55
2022/05/28 01:37:47;;;;;;;4.57;2.90;;;;;;;26.73;39.45;99583.97;1655649;86;21627;-59
2022/05/28 01:40:15;;;;;;;4.03;2.67;;;;;;;26.45;39.86;99590.78;1656344;86;21175;-55
2022/05/28 01:42:45;;;;;;;4.73;2.87;;;;;;;26.27;40.24;99583.19;1656070;85;20980;-56
2022/05/28 01:45:14;;;;;;;4.70;2.57;;;;;;;26.16;40.66;99593.87;1656406;86;20952;-54
2022/05/28 01:47:43;;;;;;;4.20;2.93;;;;;;;26.33;40.41;99601.20;1655994;86;21071;-61
2022/05/28 01:50:12;;;;;;;3.67;2.17;;;;;;;26.24;40.62;99601.70;1656451;86;21062;-55
2022/05/28 01:52:40;;;;;;;3.03;2.40;;;;;;;26.36;40.52;99596.05;1656680;85;21201;-55
2022/05/28 01:55:07;;;;;;;3.97;2.40;;;;;;;26.30;40.54;99602.63;1656208;86;21146;-55
2022/05/28 01:57:35;;;;;;;3.37;2.60;;;;;;;26.21;40.83;99604.42;1656710;86;21154;-55
2022/05/28 02:00:04;;;;;;;4.37;2.63;;;;;;;26.20;41.03;99605.52;1655511;86;20957;-56
2022/05/28 02:02:32;;;;;;;3.20;2.20;;;;;;;26.28;41.07;99606.68;1656282;86;22137;-55
2022/05/28 02:05:00;;;;;;;4.60;2.60;;;;;;;25.95;41.70;99595.67;1656201;86;21242;-54
2022/05/28 02:07:27;;;;;;;3.33;2.40;;;;;;;26.20;41.46;99599.63;1655971;86;20956;-63
2022/05/28 02:10:01;;;;;;;3.73;2.23;;;;;;;26.28;41.33;99600.00;1654774;86;21146;-58
2022/05/28 02:12:35;;;;;;;3.70;2.20;;;;;;;26.49;41.00;99596.34;1655841;86;21019;-56
2022/05/28 02:15:45;;;;;;;4.23;2.40;;;;;;;26.65;40.74;99600.20;1646085;86;20948;-57
2022/05/28 02:18:38;;;;;;;5.17;1.97;;;;;;;26.92;40.27;99595.23;1655740;86;21184;-54
2022/05/28 02:21:28;;;;;;;5.00;2.47;;;;;;;27.95;38.60;99585.92;1655736;85;20988;-63
2022/05/28 02:24:24;;;;;;;3.23;2.00;;;;;;;28.10;38.04;99579.30;1639606;86;21529;-56
2022/05/28 02:26:57;;;;;;;3.93;2.10;;;;;;;28.17;37.93;99584.98;1655610;86;21107;-57
2022/05/28 02:29:24;;;;;;;2.80;1.63;;;;;;;28.51;37.33;99584.17;1655057;86;21097;-57
2022/05/28 02:31:51;;;;;;;3.73;1.80;;;;;;;28.47;37.22;99581.89;1639817;86;21157;-55
2022/05/28 02:34:18;;;;;;;3.90;2.17;;;;;;;29.00;36.40;99577.19;1655720;86;21008;-55
2022/05/28 02:36:46;;;;;;;4.30;2.13;;;;;;;29.31;35.79;99575.53;1655162;86;21019;-55
2022/05/28 02:39:13;;;;;;;2.63;1.80;;;;;;;29.22;35.67;99572.90;1656216;86;21067;-55
2022/05/28 02:41:40;;;;;;;4.37;2.03;;;;;;;29.16;35.69;99577.42;1655250;85;21004;-56
2022/05/28 02:44:09;;;;;;;2.77;1.90;;;;;;;29.32;35.52;99572.53;1655866;86;21943;-55
2022/05/28 02:46:36;;;;;;;3.63;2.00;;;;;;;29.54;35.15;99574.67;1655555;86;21020;-56
2022/05/28 02:49:07;;;;;;;3.07;1.87;;;;;;;29.51;35.21;99580.69;1655828;86;21087;-55
2022/05/28 02:51:37;;;;;;;2.87;1.80;;;;;;;29.70;34.82;99579.75;1655375;86;21031;-54
2022/05/28 02:54:04;;;;;;;3.87;1.80;;;;;;;30.00;34.34;99574.27;1656154;86;21087;-55
2022/05/28 02:56:31;;;;;;;3.67;1.90;;;;;;;30.32;34.04;99574.11;1655067;86;21271;-62
2022/05/28 02:58:58;;;;;;;4.47;1.90;;;;;;;30.70;33.45;99575.77;1655884;85;21607;-56
2022/05/28 03:01:32;;;;;;;3.57;2.07;;;;;;;30.90;33.03;99575.47;1655015;86;21083;-55
2022/05/28 03:03:59;;;;;;;4.27;2.07;;;;;;;31.12;32.75;99572.90;1655742;86;21996;-55
2022/05/28 03:06:26;;;;;;;4.50;1.80;;;;;;;31.46;32.34;99579.74;1655581;86;21151;-60
2022/05/28 03:08:54;;;;;;;3.73;2.20;;;;;;;31.83;31.68;99573.70;1655888;86;21618;-55
2022/05/28 03:11:21;;;;;;;3.50;1.87;;;;;;;32.17;31.29;99571.59;1655190;85;20925;-59
2022/05/28 03:13:49;;;;;;;5.17;2.33;;;;;;;32.41;30.81;99574.74;1655858;86;21086;-55
2022/05/28 03:16:16;;;;;;;2.80;2.00;;;;;;;32.88;30.11;99569.38;1655950;86;21643;-57
2022/05/28 03:18:43;;;;;;;4.17;2.07;;;;;;;32.84;29.94;99567.70;1655352;85;21006;-56
2022/05/28 03:21:10;;;;;;;3.23;2.30;;;;;;;33.09;29.77;99573.16;1656077;86;22025;-55
2022/05/28 03:23:38;;;;;;;4.13;1.87;;;;;;;33.31;29.31;99560.15;1655335;86;21078;-54
2022/05/28 03:26:12;;;;;;;4.37;2.42;;;;;;;33.51;29.28;99562.34;1656060;86;21097;-56
2022/05/28 03:28:39;;;;;;;3.53;1.90;;;;;;;33.31;29.36;99560.92;1655561;86;21067;-55
2022/05/28 03:31:06;;;;;;;2.95;2.00;;;;;;;33.39;29.21;99560.52;1655246;85;21086;-62
2022/05/28 03:33:34;;;;;;;4.15;2.10;;;;;;;33.40;29.36;99567.47;1655845;85;21780;-56
2022/05/28 03:36:01;;;;;;;3.10;1.98;;;;;;;33.67;28.96;99553.59;1655648;86;20979;-56
2022/05/28 03:38:28;;;;;;;3.25;2.05;;;;;;;33.79;28.94;99548.61;1655272;85;21494;-56
2022/05/28 03:40:55;;;;;;;3.33;2.08;;;;;;;33.86;28.49;99548.75;1655949;86;22497;-55
2022/05/28 03:43:23;;;;;;;2.77;2.20;;;;;;;33.96;28.37;99550.89;1655453;86;21079;-59
2022/05/28 03:45:50;;;;;;;4.35;2.15;;;;;;;33.78;28.62;99562.70;1655715;85;21484;-56
2022/05/28 03:48:17;;;;;;;3.80;1.85;;;;;;;33.86;28.52;99556.86;1655963;85;20932;-55
2022/05/28 03:50:45;;;;;;;3.80;2.00;;;;;;;33.92;28.70;99551.39;1655371;86;21028;-55
2022/05/28 03:53:15;;;;;;;5.17;2.40;;;;;;;34.05;28.44;99543.92;1655631;85;21328;-61
2022/05/28 03:55:42;;;;;;;3.98;2.25;;;;;;;34.35;28.13;99554.91;1655692;86;21755;-56
2022/05/28 03:58:10;;;;;;;2.70;2.17;;;;;;;34.64;27.93;99552.15;1655814;86;21263;-55
2022/05/28 04:00:37;;;;;;;4.58;2.35;;;;;;;34.36;27.94;99555.91;1655323;85;21565;-60
2022/05/28 04:03:04;;;;;;;3.47;2.02;;;;;;;34.48;28.11;99572.55;1655393;86;21171;-61
2022/05/28 04:05:31;;;;;;;3.42;2.10;;;;;;;35.07;27.04;99593.45;1655043;85;21020;-55
2022/05/28 04:07:58;;;;;;;2.87;2.02;;;;;;;34.38;27.55;99600.97;1655870;85;21036;-55
2022/05/28 04:10:27;;;;;;;2.90;2.30;;;;;;;33.71;28.31;99599.62;1655597;85;21856;-62
2022/05/28 04:12:56;;;;;;;4.75;2.27;;;;;;;32.93;29.29;99601.53;1649663;85;22306;-60
2022/05/28 04:15:24;;;;;;;3.12;2.15;;;;;;;32.29;30.27;99607.93;1689137;84;21595;-56
2022/05/28 04:17:51;;;;;;;5.80;2.83;;;;;;;31.77;31.12;99622.79;1689668;83;21098;-55
2022/05/28 04:20:18;;;;;;;3.27;2.40;;;;;;;31.54;31.60;99615.20;1655348;85;21028;-55
2022/05/28 04:22:46;;;;;;;3.80;2.10;;;;;;;31.39;32.03;99619.36;1655305;85;21267;-56
2022/05/28 04:25:13;;;;;;;4.27;2.10;;;;;;;31.44;32.10;99613.77;1655087;85;21369;-57
2022/05/28 04:27:42;;;;;;;3.20;2.57;;;;;;;31.46;32.21;99624.97;1656014;85;22173;-55
2022/05/28 04:30:10;;;;;;;3.90;2.00;;;;;;;31.30;32.45;99631.36;1655462;85;21576;-57
2022/05/28 04:32:38;;;;;;;3.70;2.30;;;;;;;30.88;32.92;99622.13;1655677;85;21043;-64
2022/05/28 04:35:06;;;;;;;4.07;2.33;;;;;;;30.50;33.52;99625.82;1655211;85;21505;-62
2022/05/28 04:37:33;;;;;;;4.23;2.00;;;;;;;30.49;33.73;99633.64;1661114;85;21384;-61
2022/05/28 04:40:01;;;;;;;3.50;2.30;;;;;;;30.93;33.82;99622.69;1689222;84;21048;-55
2022/05/28 04:42:29;;;;;;;5.90;2.20;;;;;;;31.78;32.92;99627.05;1655562;85;21147;-61
2022/05/28 04:44:56;;;;;;;4.37;2.17;;;;;;;32.61;32.24;99619.58;1654562;86;21079;-56
2022/05/28 04:47:24;;;;;;;4.87;2.10;;;;;;;33.85;30.50;99614.78;1655320;85;21160;-56
2022/05/28 04:49:52;;;;;;;2.83;2.00;;;;;;;34.89;28.87;99611.32;1655693;85;21314;-55
2022/05/28 04:52:20;;;;;;;3.45;2.00;;;;;;;35.50;28.07;99612.52;1655459;85;21068;-63
2022/05/28 04:54:47;;;;;;;3.00;2.20;;;;;;;35.89;27.52;99612.80;1654960;85;21074;-55
2022/05/28 04:57:15;;;;;;;3.00;2.15;;;;;;;36.36;27.00;99598.61;1655599;85;21002;-57
2022/05/28 04:59:42;;;;;;;4.70;2.47;;;;;;;36.99;26.00;99600.38;1655409;85;21285;-56
2022/05/28 05:02:09;;;;;;;3.20;2.22;;;;;;;37.01;25.95;99587.76;1655219;85;21832;-55
2022/05/28 05:04:36;;;;;;;3.12;2.25;;;;;;;37.31;25.55;99586.78;1655152;85;20998;-58
2022/05/28 05:07:04;;;;;;;3.37;2.30;;;;;;;37.27;25.29;99588.12;1655465;85;21142;-55
2022/05/28 05:09:32;;;;;;;2.77;1.98;;;;;;;37.26;25.60;99579.19;1654617;85;21542;-55
2022/05/28 05:11:59;;;;;;;3.37;2.30;;;;;;;37.41;25.00;99570.56;1655865;85;21187;-55
2022/05/28 05:14:26;;;;;;;3.02;2.40;;;;;;;37.41;25.18;99576.00;1656026;85;20957;-55
2022/05/28 05:16:54;;;;;;;5.12;2.10;;;;;;;37.88;24.88;99574.27;1654533;85;21100;-55
2022/05/28 05:19:21;;;;;;;4.00;2.30;;;;;;;38.02;24.34;99572.77;1654418;84;21911;-57
2022/05/28 05:21:48;;;;;;;3.33;2.22;;;;;;;38.26;24.10;99569.30;1655428;85;21299;-56
2022/05/28 05:24:17;;;;;;;3.52;2.70;;;;;;;38.51;23.97;99574.03;1655584;85;21015;-56
2022/05/28 05:26:45;;;;;;;2.80;2.10;;;;;;;38.75;23.63;99581.99;1655214;85;21579;-57
2022/05/28 05:29:12;;;;;;;4.20;2.60;;;;;;;38.81;23.40;99583.97;1655331;85;22051;-56
2022/05/28 05:31:40;;;;;;;4.67;1.85;;;;;;;38.85;23.46;99588.83;1654841;85;20999;-57
2022/05/28 05:34:07;;;;;;;4.00;2.35;;;;;;;38.90;23.44;99590.37;1655492;85;21130;-56
2022/05/28 05:36:36;;;;;;;5.33;2.35;;;;;;;38.78;23.25;99582.58;1655490;85;21942;-56
2022/05/28 05:39:03;;;;;;;4.45;2.20;;;;;;;38.80;23.01;99591.19;1654600;85;21066;-57
2022/05/28 05:41:32;;;;;;;3.72;2.40;;;;;;;38.25;23.38;99595.55;1654416;85;21094;-57
2022/05/28 05:43:59;;;;;;;4.78;2.35;;;;;;;38.14;23.75;99594.17;1655605;85;21135;-55
2022/05/28 05:46:27;;;;;;;4.20;2.47;;;;;;;38.03;23.76;99604.24;1655714;85;21028;-57
2022/05/28 05:48:54;;;;;;;4.80;2.35;;;;;;;37.86;24.06;99616.61;1655206;85;21327;-57
2022/05/28 05:51:22;;;;;;;6.33;2.70;;;;;;;37.79;24.07;99607.83;1655020;85;20940;-62
2022/05/28 05:53:49;;;;;;;3.20;2.05;;;;;;;37.49;24.54;99604.78;1655253;85;21063;-56
2022/05/28 05:56:16;;;;;;;3.12;2.10;;;;;;;36.90;24.98;99608.05;1655876;85;21016;-55
2022/05/28 05:58:45;;;;;;;10.23;3.40;;;;;;;37.15;24.95;99596.01;1655600;85;21052;-58
2022/05/28 06:01:12;;;;;;;4.00;2.27;;;;;;;37.30;24.83;99600.18;1654790;85;21271;-58
2022/05/28 06:03:44;;;;;;;4.33;2.80;;;;;;;37.06;25.21;99603.73;1655231;85;21332;-57
2022/05/28 06:06:09;;;;;;;4.72;2.83;;;;;;;37.46;24.98;99609.61;1655383;85;21004;-55
2022/05/28 06:08:37;;;;;;;5.67;3.45;;;;;;;37.75;24.31;99608.41;1636906;86;21078;-56
2022/05/28 06:11:05;;;;;;;5.90;2.83;;;;;;;37.71;24.42;99599.45;1655142;85;21051;-57
2022/05/28 06:13:32;;;;;;;4.92;3.60;;;;;;;37.61;24.59;99604.25;1654997;85;21903;-56
2022/05/28 06:16:00;;;;;;;4.95;3.47;;;;;;;37.88;24.36;99605.55;1655503;85;21353;-56
2022/05/28 06:18:27;;;;;;;5.78;2.75;;;;;;;37.83;24.40;99603.18;1654522;85;21557;-56
2022/05/28 06:20:54;;;;;;;4.28;2.47;;;;;;;37.82;24.43;99601.63;1655635;85;21021;-58
2022/05/28 06:23:22;;;;;;;6.60;2.72;;;;;;;37.83;24.62;99603.18;1654647;85;21018;-56
2022/05/28 06:25:49;;;;;;;6.37;3.08;;;;;;;37.80;24.57;99594.42;1655960;85;21238;-56
2022/05/28 06:28:17;;;;;;;4.58;2.50;;;;;;;38.16;24.21;99590.48;1655423;85;21532;-56
2022/05/28 06:30:47;;;;;;;4.17;2.60;;;;;;;38.40;23.92;99590.35;1655788;85;20984;-56
2022/05/28 06:33:15;;;;;;;4.72;3.10;;;;;;;38.35;24.03;99586.08;1655356;85;20976;-63
2022/05/28 06:35:42;;;;;;;3.17;2.30;;;;;;;38.47;23.81;99591.72;1655919;85;21444;-57
2022/05/28 06:38:09;;;;;;;4.47;2.50;;;;;;;38.48;24.02;99585.69;1655963;85;21200;-55
2022/05/28 06:40:36;;;;;;;8.65;2.22;;;;;;;38.73;24.07;99591.93;1656366;85;21565;-56
2022/05/28 06:43:05;;;;;;;3.60;2.52;;;;;;;38.92;23.88;99597.00;1656142;85;20956;-63
2022/05/28 06:45:32;;;;;;;4.35;2.30;;;;;;;39.17;23.52;99590.16;1654752;85;20969;-63
2022/05/28 06:48:00;;;;;;;3.60;2.05;;;;;;;39.22;23.22;99595.79;1655629;85;21567;-56
2022/05/28 06:53:13;;;;;;;2.95;2.15;;;;;;;38.80;23.85;99598.77;1646499;85;21438;-56
2022/05/28 06:55:41;;;;;;;4.28;2.58;;;;;;;38.83;23.67;99590.37;1652673;86;21108;-58
2022/05/28 06:58:08;;;;;;;2.95;1.92;;;;;;;39.09;23.63;99589.19;1653638;86;21074;-55
2022/05/28 07:00:36;;;;;;;6.53;2.37;;;;;;;39.27;23.40;99591.32;1652987;86;21086;-56
2022/05/28 07:03:03;;;;;;;5.92;2.40;;;;;;;39.08;23.27;99597.17;1654564;85;21262;-56
2022/05/28 07:05:31;;;;;;;3.70;2.50;;;;;;;39.28;23.23;99591.50;1653032;86;21090;-56
2022/05/28 07:07:58;;;;;;;3.17;2.20;;;;;;;39.35;23.29;99599.66;1652977;86;21091;-60
2022/05/28 07:10:27;;;;;;;3.77;2.30;;;;;;;39.43;23.01;99601.78;1654494;85;21059;-56
2022/05/28 07:12:55;;;;;;;4.80;2.90;;;;;;;39.10;23.33;99604.39;1660725;85;21536;-56
2022/05/28 07:15:22;;;;;;;6.15;2.12;;;;;;;38.74;23.69;99603.60;1688847;84;21225;-58
2022/05/28 07:17:52;;;;;;;3.77;2.80;;;;;;;38.38;24.06;99607.09;1689204;83;21084;-56
2022/05/28 07:20:20;;;;;;;3.77;2.60;;;;;;;38.29;24.24;99609.36;1655384;85;21586;-55
2022/05/28 07:22:47;;;;;;;4.65;2.30;;;;;;;38.02;24.66;99617.66;1655110;85;21067;-55
2022/05/28 07:25:14;;;;;;;3.15;2.45;;;;;;;37.64;24.89;99619.81;1654924;85;21012;-56
2022/05/28 07:27:42;;;;;;;4.92;2.67;;;;;;;37.56;24.85;99615.50;1655417;85;21463;-61
2022/05/28 07:30:10;;;;;;;3.60;2.70;;;;;;;37.37;25.00;99614.59;1654916;85;21072;-58
2022/05/28 07:32:37;;;;;;;4.15;2.65;;;;;;;37.16;25.49;99622.60;1656000;85;21043;-58
2022/05/28 07:35:06;;;;;;;4.28;2.72;;;;;;;36.93;26.00;99626.29;1655383;85;21042;-61
2022/05/28 07:37:33;;;;;;;4.15;2.70;;;;;;;36.77;26.00;99627.13;1655585;85;22465;-57
2022/05/28 07:40:00;;;;;;;3.92;2.67;;;;;;;36.47;26.24;99629.96;1654980;85;21067;-58
2022/05/28 07:42:28;;;;;;;4.00;2.67;;;;;;;36.41;26.35;99636.87;1655373;85;21583;-56
2022/05/28 07:44:55;;;;;;;5.75;2.85;;;;;;;35.98;26.96;99641.77;1655567;85;21604;-55
2022/05/28 07:47:22;;;;;;;4.33;2.85;;;;;;;35.46;27.58;99637.95;1654563;85;21028;-63
2022/05/28 07:49:50;;;;;;;4.90;3.55;;;;;;;35.05;28.09;99637.17;1656058;85;21073;-62
2022/05/28 07:52:17;;;;;;;3.70;2.52;;;;;;;34.87;28.59;99634.71;1654822;85;21630;-55
2022/05/28 07:54:47;;;;;;;4.12;2.85;;;;;;;35.05;28.49;99629.63;1655750;85;21823;-57
2022/05/28 07:57:14;;;;;;;5.00;2.70;;;;;;;35.45;28.06;99633.11;1655553;85;21082;-62
2022/05/28 07:59:42;;;;;;;3.83;2.72;;;;;;;35.08;28.42;99633.74;1655425;85;21024;-58
2022/05/28 08:02:09;;;;;;;3.55;2.65;;;;;;;34.83;28.74;99628.45;1654632;85;21078;-59
2022/05/28 08:04:37;;;;;;;5.67;2.55;;;;;;;34.92;28.98;99626.27;1655342;85;21929;-58
2022/05/28 08:07:04;;;;;;;5.00;2.62;;;;;;;34.98;29.29;99630.25;1655489;85;21078;-55
2022/05/28 08:09:32;;;;;;;4.87;2.77;;;;;;;35.25;29.02;99622.17;1655545;86;21082;-57
2022/05/28 08:12:00;;;;;;;5.00;2.40;;;;;;;35.52;28.29;99618.91;1655502;86;21501;-63
2022/05/28 08:14:27;;;;;;;4.97;2.90;;;;;;;35.47;28.21;99617.27;1655772;86;21024;-55
2022/05/28 08:16:55;;;;;;;5.87;4.23;;;;;;;35.49;28.48;99613.64;1645108;86;21162;-54
2022/05/28 08:19:22;;;;;;;6.63;4.87;;;;;;;35.44;28.96;99616.64;1655539;85;21019;-56
2022/05/28 08:24:37;;;;;;;4.83;3.00;;;;;;;36.09;28.09;99605.30;1655623;85;21083;-56
2022/05/28 08:27:04;;;;;;;4.42;2.60;;;;;;;36.44;27.43;99602.94;1655860;86;21122;-56
2022/05/28 08:29:32;;;;;;;3.37;2.40;;;;;;;36.18;27.46;99611.20;1655282;86;22497;-56
2022/05/28 08:31:59;;;;;;;5.08;3.00;;;;;;;36.14;27.86;99609.03;1655453;86;21865;-63
2022/05/28 08:34:26;;;;;;;5.10;3.00;;;;;;;36.27;27.53;99602.21;1655639;86;21044;-55
2022/05/28 08:36:54;;;;;;;5.25;2.60;;;;;;;36.35;27.77;99592.98;1655129;86;21052;-55
2022/05/28 08:39:21;;;;;;;4.65;2.77;;;;;;;36.48;27.48;99583.45;1655312;86;21097;-63
2022/05/28 08:41:57;;;;;;;5.85;3.55;;;;;;;36.26;27.41;99597.95;1655851;86;21228;-56
2022/05/28 08:44:26;;;;;;;5.95;4.20;;;;;;;36.39;27.40;99593.02;1655137;85;21018;-56
2022/05/28 08:46:56;;;;;;;5.90;3.80;;;;;;;36.45;27.21;99603.75;1655185;86;20992;-56
2022/05/28 08:49:26;;;;;;;7.33;4.35;;;;;;;36.28;27.29;99605.13;1655350;86;20921;-63
2022/05/28 08:52:10;;;;;;;5.97;4.80;;;;;;;35.88;27.55;99621.52;1655373;86;21023;-62
2022/05/28 08:54:56;;;;;;;6.40;3.92;;;;;;;35.50;28.22;99619.87;1641325;86;21185;-55
2022/05/28 08:57:17;;;;;;;6.97;5.08;;;;;;;35.30;28.69;99623.21;1654446;86;21019;-58
2022/05/28 08:59:49;;;;;;;5.75;4.80;;;;;;;35.20;29.36;99628.70;1655339;86;21052;-56
2022/05/28 09:02:21;;;;;;;6.40;4.67;;;;;;;35.43;29.12;99629.22;1656184;86;21850;-55
2022/05/28 09:04:48;;;;;;;5.20;4.20;;;;;;;35.67;28.99;99631.51;1655056;86;21073;-57
2022/05/28 09:07:17;;;;;;;8.03;5.08;;;;;;;36.00;28.29;99637.58;1655868;85;21408;-55
2022/05/28 09:09:48;;;;;;;4.43;3.93;;;;;;;36.03;28.23;99634.13;1655605;85;20952;-57
2022/05/28 09:12:30;;;;;;;5.30;3.60;;;;;;;36.10;28.18;99632.63;1655675;85;21147;-55
2022/05/28 09:14:57;;;;;;;5.92;4.30;;;;;;;35.92;28.35;99636.48;1644933;85;21076;-55
2022/05/28 09:17:46;;;;;;;5.03;3.37;;;;;;;35.86;28.58;99633.88;1655319;85;21130;-62
2022/05/28 09:20:23;;;;;;;5.30;2.47;;;;;;;35.65;28.54;99632.46;1654631;85;21169;-60
2022/05/28 09:22:50;;;;;;;4.13;2.60;;;;;;;35.61;28.30;99624.83;1655494;85;21099;-57
2022/05/28 09:25:19;;;;;;;4.10;2.35;;;;;;;35.76;28.67;99637.45;1654880;85;21011;-57
2022/05/28 09:28:06;;;;;;;4.70;2.20;;;;;;;35.75;28.46;99632.38;1655610;85;21107;-58
2022/05/28 09:30:51;;;;;;;3.40;2.00;;;;;;;36.08;28.48;99630.88;1655564;85;21090;-57
2022/05/28 09:33:33;;;;;;;5.90;2.60;;;;;;;36.04;28.51;99623.48;1655274;85;21925;-56
2022/05/28 09:36:18;;;;;;;6.07;2.70;;;;;;;36.24;28.08;99616.52;1655366;85;21086;-55
2022/05/28 09:38:53;;;;;;;4.40;2.62;;;;;;;36.50;28.29;99617.00;1655128;85;21074;-57
2022/05/28 09:41:43;;;;;;;3.15;2.00;;;;;;;36.66;28.24;99601.82;1655349;85;21491;-56
2022/05/28 09:44:49;;;;;;;4.83;2.55;;;;;;;37.21;27.51;99595.87;1655164;85;21123;-56
2022/05/28 09:47:19;;;;;;;5.10;3.02;;;;;;;38.03;26.30;99596.86;1654938;85;22306;-60
2022/05/28 09:49:53;;;;;;;10.18;3.33;;;;;;;38.72;25.26;99598.55;1656188;85;21344;-55
2022/05/28 09:52:27;;;;;;;3.55;2.60;;;;;;;38.71;25.15;99603.78;1655125;85;21075;-62
2022/05/28 09:55:14;;;;;;;7.30;3.10;;;;;;;38.32;25.46;99605.88;1654997;85;21340;-55
2022/05/28 09:58:02;;;;;;;4.67;2.25;;;;;;;38.32;25.95;99603.15;1655444;85;21054;-57
2022/05/28 10:00:29;;;;;;;5.28;2.98;;;;;;;38.54;25.12;99622.28;1654852;85;21165;-62
2022/05/28 10:05:55;;;;;;;4.37;2.87;;;;;;;38.47;25.21;99614.09;1654653;85;21615;-56
2022/05/28 10:08:31;;;;;;;7.83;3.15;;;;;;;37.44;25.59;99617.38;1650407;85;21095;-56
2022/05/28 10:11:04;;;;;;;5.12;2.98;;;;;;;36.91;26.70;99617.75;1685094;83;21015;-62
2022/05/28 10:13:53;;;;;;;4.95;2.50;;;;;;;37.03;26.46;99613.98;1684644;84;21259;-56
2022/05/28 10:16:26;;;;;;;7.08;2.87;;;;;;;37.13;26.11;99620.66;1684849;85;21126;-55
2022/05/28 10:18:55;;;;;;;5.20;2.55;;;;;;;37.23;26.14;99621.30;1684269;83;21063;-63
2022/05/28 10:21:30;;;;;;;5.25;2.50;;;;;;;37.04;26.37;99614.76;1684760;85;21380;-57
2022/05/28 10:24:00;;;;;;;5.17;2.58;;;;;;;36.94;26.49;99621.11;1674283;85;20991;-56
2022/05/28 10:26:35;;;;;;;3.92;2.60;;;;;;;36.70;26.85;99614.27;1684803;83;21239;-57
2022/05/28 10:29:05;;;;;;;3.80;2.42;;;;;;;37.04;26.49;99609.33;1676024;83;21000;-56
2022/05/28 10:31:36;;;;;;;5.22;2.72;;;;;;;37.04;26.73;99615.54;1685022;83;20997;-61
2022/05/28 10:34:07;;;;;;;;;;;;;;;37.03;26.82;99611.84;1687545;84;21491;-56
2022/05/28 10:36:35;;;;;;;3.80;2.75;;;;;;;37.21;26.59;99610.04;1685314;83;20551;-59
2022/05/28 10:39:12;;;;;;;4.20;2.22;;;;;;;37.70;26.05;99606.83;1685039;85;22099;-55
2022/05/28 10:41:39;;;;;;;5.47;2.58;;;;;;;37.59;25.72;99602.52;1685399;83;21987;-57
2022/05/28 10:44:06;;;;;;;4.53;3.27;;;;;;;37.63;26.11;99604.08;1684542;85;21567;-57
2022/05/28 10:47:07;;;;;;;4.67;2.75;;;;;;;37.59;25.96;99606.59;1684982;83;20884;-57
2022/05/28 10:49:59;;;;;;;5.92;2.95;;;;;;;37.49;25.80;99603.42;1685378;83;21093;-56
2022/05/28 10:53:14;;;;;;;4.35;3.08;;;;;;;36.90;26.50;99615.39;1684437;85;21562;-56
2022/05/28 10:55:52;;;;;;;5.58;2.75;;;;;;;36.69;26.74;99618.14;1685915;83;21145;-57
2022/05/28 10:58:33;;;;;;;5.60;2.35;;;;;;;36.33;27.41;99622.41;1684703;84;21074;-57
2022/05/28 11:01:07;;;;;;;4.62;2.50;;;;;;;36.26;27.78;99619.66;1684526;84;21095;-57
2022/05/28 11:04:07;;;;;;;4.10;2.30;;;;;;;36.89;27.09;99615.20;1684255;84;21082;-61
2022/05/28 11:07:09;;;;;;;4.43;2.43;;;;;;;36.68;27.15;99626.09;1684555;83;21335;-57
2022/05/28 11:09:48;;;;;;;4.47;2.70;;;;;;;36.15;27.61;99620.11;1658614;85;21090;-57
2022/05/28 11:12:43;;;;;;;14.00;3.23;;;;;;;35.83;28.15;99636.73;1658440;85;21865;-58
2022/05/28 11:15:33;;;;;;;6.73;1.93;;;;;;;35.66;28.76;99634.59;1658638;85;20964;-57
2022/05/28 11:18:46;;;;;;;5.60;2.22;;;;;;;36.11;28.15;99626.08;1658515;85;21561;-58
2022/05/28 11:21:25;;;;;;;3.13;2.00;;;;;;;36.40;28.33;99616.28;1625909;86;22197;-57
2022/05/28 11:24:31;;;;;;;3.53;2.00;;;;;;;37.25;27.34;99609.48;1625200;86;21056;-56
2022/05/28 11:27:09;;;;;;;5.30;3.65;;;;;;;37.62;26.48;99612.05;1658872;85;21329;-57
2022/05/28 11:29:57;;;;;;;6.12;4.67;;;;;;;37.58;26.52;99615.89;1610543;87;21032;-56
2022/05/28 11:32:27;;;;;;;4.50;2.77;;;;;;;37.65;26.02;99626.80;1658576;85;21075;-57
2022/05/28 11:35:00;;;;;;;4.70;2.07;;;;;;;37.60;26.30;99622.52;1658756;85;21262;-58
2022/05/28 11:37:37;;;;;;;5.75;3.55;;;;;;;37.49;26.46;99623.81;1632263;86;20971;-62
2022/05/28 11:40:25;;;;;;;3.70;2.12;;;;;;;37.46;26.30;99627.87;1649171;85;21074;-56
2022/05/28 11:43:00;;;;;;;3.33;2.15;;;;;;;37.22;26.55;99627.89;1659372;85;21007;-63
2022/05/28 11:45:43;;;;;;;4.65;1.90;;;;;;;37.28;26.62;99625.59;1659055;85;21110;-56
2022/05/28 11:48:18;;;;;;;3.17;1.75;;;;;;;37.34;26.37;99624.86;1646669;85;21258;-56
2022/05/28 11:53:49;;;;;;;4.55;2.95;;;;;;;37.45;26.12;99618.94;1659683;85;20979;-57
2022/05/28 11:56:24;;;;;;;4.87;3.30;;;;;;;37.60;26.28;99613.58;1658184;85;20979;-61
2022/05/28 11:58:53;;;;;;;15.70;14.10;;;;;;;38.01;25.86;99612.03;1659250;85;21093;-56
2022/05/28 12:01:27;;;;;;;8.10;7.00;;;;;;;38.31;25.45;99609.77;1659151;85;21883;-56
2022/05/28 12:03:54;;;;;;;9.53;7.62;;;;;;;38.13;25.13;99621.20;1658021;85;21004;-64
2022/05/28 12:06:36;;;;;;;12.95;8.70;;;;;;;38.05;25.37;99623.70;1704545;83;21494;-60